Timeline UpdatesTrip UpdatesNews PostsPvt Posts♥♥Travel TipsAdmin PostsConv PostsFollowed PostsChat RequestsBlog PostsPNR Posts

Disclaimer
Search
 
 
Sat Nov 1, 2014 16:41:05 ISTHomeTrainsΣChainsAtlasPNRForumGalleryNewsFAQTripsMembersLoginFeedback
No Recent News for this Train
Other Trains in the News **new
Latest...
..
Tue Aug 05, 2014 (12:52PM)
⇐ Return Journey: Train# 57550

57549/Hyderabad Aurangabad Passenger

Time-Table HAS CHANGED.
Sep 16 2014 (12:53PM)
Change Departure Station:
Change Arrival Station:
Post a Train Travel TipPost a Train Travel Tip **new
Post a Comment/Question/Picture/VideoPost a Comment/Question/Picture/Video
Pantry/Catering
✕ NO Pantry Car
✕ NO Catering
Loco/Rake Reversals
PRLI/Parli Vaijnath (3); PBN/Parbhani Junction (3);
RSA - Rake Sharing
57549=>57550=>57547=>57548=>57549
Rake/Coach Composition
<<<<-LOCO-SLR-GEN-GEN-GEN-GEN-GEN-S3-S2-S1-GEN-GEN-SLR; Rake Reverses @ PBN & PRLI
Loco
MLY WDM 2A
News    PNR    Forum    Time-Table    Availability    Fare Chart    Map    Arr/Dep History    Trips    Gallery    ΣChains    X/O    Timeline    
Travel Time: 2h 45m    13 halts    Distance: 119 km    Avg Speed: 43 km/hr
Type: Passenger
Zone: SCR/South Central
Departs @ 21:35 (Avg 2m late)
Platform# 1
SMTWTFS
Hyderabad Deccan Nampally/HYB 
Arrives @ 00:20 +1 night (Avg 31m late)
Platform# ???
SMTWTFS
Kohir Deccan/KOHR 

13 halts. 23 intermediate Stations between Hyderabad Deccan Nampally and Kohir Deccan

Show ALL intermediate Stations  Show Old Time-Table

#TrkCodeStation NameX/OArrivesAvgDepartsAvgHaltPFDay#KmSpeedElevZoneAddress
1/==/HYBHyderabad Deccan Nampally (6)»  -21:35+2110.028510mSCRHyderabad, Telangana
2/==/KQDKhairatabad (2)  21:40-21:41-1m--12.333518mSCRHyderabad, Telangana
3/==/BMTBegumpet (2)  21:49 21:47+021:50 21:48+01m215.720531mSCRHyderabad, Telangana
4/==/SNFSanathnagar (3)X  21:59+1322:00+151m219.362547mSCRHyderabad, Telangana
5/==/HFZHafizpet (2)  22:09+1622:10+161m2118.652590mSCRHyderabad, Telangana
6/==/LPILingampalli (6)  22:21 22:16+1422:22 22:17+141m1123.849558mSCRRangareddy Dist., Telangana
7/==/NPLNagalapalle (2)X  22:29+1922:30+211m2133.660561mSCRMedak Dist., Telangana
8/==/SKPShankarpalli (2)  22:41+1822:42+181m2144.546574mSCRRangareddy Dist., Telangana
9/==/RPKRavulapalli Kalan (2)  22:49-22:50-1m2149.892582mSCRRangareddy Dist., Telangana
10/==/GGDGullaguda  22:54+2422:55+241m--156.046599mSCRRangareddy Dist., Telangana
11/==/CTFChitgidda  23:04+2623:05+281m--162.942607mSCRRangareddy Dist., Telangana
12/==/VKBVikarabad Junction (3)  23:20+2123:30+2510m2173.369633mSCRRangareddy Dist., Telangana
13|--|SSPDSadashivapet Road  23:49+3523:50+351m--195.157632mSCRRangareddy Dist., Telangana
14|--|MRFMarpalli  00:05+3700:06+371m--2109.242628mSCRRangareddu Dist., Telangana
15|--|KOHRKohir Deccan (1)•  00:20+3100:21+321m--2118.9104629mSCRMedak Dist., Telangana
16|--|ZBZahirabad (1)X  00:37 00:29+3700:38 00:30+381m12132.835634mSCRDist. Medak, Telangana
17|--|BIDRBidar (3)X  01:25+1501:30+215m--2164.678673mSCRBidar ph.no 08482 226404, Karnataka
18|--|BHLKBhalki  01:58 01:59+4002:00+432 1m--2202.198607mSCRBhalki ph.no 08484 262209, Karnataka
19|--|KCPKalgupur  02:09+4802:10+491m--2216.762554mSCRHulsoor, Karnataka
20|--|KMNRKamalnagar  02:19+4502:20+481m--2226.161570mSCRKamal Nagar, Karnataka
21|--|UDGRUdgir (1)  02:38 02:39+4102:40+452 1m12245.382649mSCRUdgir ph.no 02385 256022, Maharashtra
22|--|KTKRKumtha Khurd  02:49-02:50-1m--2257.67641mSCRState Highway 217, Maharashtra
23|--|HERHerX  03:29+4403:30+511m--2261.922646mSCRLatur, Maharashtra
24|--|AMBRAmbika Rohina  03:39-03:40-1m--2265.325657mSCRAmbika Devi Rd, Maharashtra
25|--|NGHWNageshwadi Halt  03:49-03:50-1m--2269.031657mSCRNageshwadi Halt, Maharashtra
26|--|CKXChakur  03:59+3204:00+401m--2273.628645mSCRMSH3, Maharashtra
27|--|LTRRLatur Road Junction (3)XO  04:10+1604:11+161m12278.335648mSCRLatur Road ph.no 02381 258044, Maharashtra
28|--|WDLNWadwal Nagnath (1)  04:19-04:20-1m12282.946638mSCRWadwal Nagnath, Maharashtra
29|--|JOAJanwal (1)X  04:29+2704:30+271m12289.957645mSCRLatur, Maharashtra
30|--|KRPRKarepur (1)O  04:39-04:40-1m12298.59620mSCRState Highway 168, Maharashtra
31|--|PNFPangaon (1)  05:29+1605:30+301m12305.754637mSCRPangaon, Maharashtra
32|--|MRTYMurti (1)  05:39-05:40-1m12313.911624mSCRState Highway 169, Maharashtra
33|--|GTUGhat Nandur (1)O  06:04+1706:05+461m12318.228634mSCRGhat Nadur, Maharashtra
34|--|PRLIParli Vaijnath (3)06:55+2607:15+1920m--2341.482462mSCRParli-Vaijnath, Maharashtra
35|--|UKHUkhali  07:24-07:25-1m--2353.756409mSCRState Highway 169, Maharashtra
36|--|WDNVadgaon new halt!!  07:29+3307:30+391m--2357.560398mSCRWadgaon, Maharashtra
37|--|GNHGangakher (2)X  07:44+4807:45+581m--2371.442392mSCRState Highway 217, Maharashtra
38|--|DNDIDhondi (1)X  08:04-08:05-1m--2384.560403mSCRState Highway 148, Maharashtra
39|--|PKNSPokharni Narasimha (2)X  08:09+5908:10+1:001m--2388.543417mSCRPokharni Nrsnha, Maharashtra
40|--|SNGRSanganapur  08:19-08:20-1m--2395.013420mSCRState Highway 148, Maharashtra
41|--|PBNParbhani Junction (3)08:50 09:10+2709:00 09:20+3410m22405.752414mSCRParbhani 431401, Maharashtra
42|--|PGPergaon  09:14 09:34+4109:15 09:35+411m--2417.891441mSCRParbhani, Maharashtra
43|--|DAVDevalgaon AvcharX  09:24 09:39+4509:25 09:40+451m--2423.862425mSCRParbhani, Maharashtra
44|--|MVOManwath Road (2)X  09:34 09:49+4509:35 09:50+471m--2433.136421mSCRParbhani, Maharashtra
45|--|DGPPDhengli Pimpalgaon  09:44 09:59+4509:45 10:00+451m--2438.564407mSCRSatuna, Maharashtra
46|--|SELUSelu (2)  09:59 10:09+4110:00 10:10+491m--2448.168436mSCRParbhani, Maharashtra
47|--|SCOSatunaX  10:09 10:19+5610:10 10:20+561m--2458.353440mSCRSatona, Maharashtra
48|--|UPRUsmanpur  10:19 10:29+5510:20 10:30+551m--2466.263444mSCRUsmanpur, Maharashtra
49|--|PTUPartur (2)  10:29 10:39+5910:30 10:40+1:021m--2475.748465mSCRJalna, Maharashtra
50|--|PDGParadgaon  10:39 10:49-10:40 10:50-1m--2482.994454mSCRUsmanpur, Maharashtra
51|--|RNERanjani  10:49 10:54+1:0310:50 10:55+1:031m--2489.175469mSCRJalna, Maharashtra
52|--|KODIKodi  10:59 11:04+1:0711:00 11:05+1:081m--2500.466473mSCRRanjani, Maharashtra
53|--|SVDSarwari  11:14+1:1911:15+1:191m--2510.323493mSCRRanjani, Maharashtra
54|--|JJalna (3)  11:40+5211:45 11:42+575 2m--2520.152502mSCRJalna, Maharashtra
55|--|BDUBadnapurX  12:04+1:0212:05+1:111m--2539.049523mSCRJalna, Maharashtra
56|--|KMVKarmad  12:24+1:0912:25+1:101m--2554.517567mSCRAurangabad, Maharashtra
57|--|CTHChikalthanX  12:39+1:1212:40+1:141m--2558.495582mSCRAurangabad, Maharashtra
58|--|MKDDMukundwadi Halt (1)  12:49-12:50-1m12572.77580mSCRAurangabad, Maharashtra
59|--|AWBAurangabad (5)  14:15+25-32582.7-561mSCRAurangabad 431001, Maharashtra
Scroll to Top
Scroll to Bottom